Time;durP1;ratioP1;P1;durP2;ratioP2;P2;SDS_P1;SDS_P2;PMS_P1;PMS_P2;Temp;Humidity;BMP_temperature;BMP_pressure;BME280_temperature;BME280_humidity;BME280_pressure;Samples;Min_cycle;Max_cycle;Signal;HPM_P1;HPM_P2
2021/03/29 00:02:03;;;;;;;6.65;2.05;;;18.30;99.90;;;;;;5052058;28;20036;-63
2021/03/29 00:04:28;;;;;;;4.75;2.28;;;18.30;99.90;;;;;;5052439;28;20524;-64
2021/03/29 00:06:57;;;;;;;5.43;1.73;;;18.30;99.90;;;;;;5036188;28;20033;-62
2021/03/29 00:09:24;;;;;;;6.45;2.22;;;18.30;99.90;;;;;;5032719;28;20064;-63
2021/03/29 00:11:51;;;;;;;5.30;2.15;;;18.30;99.90;;;;;;5034465;28;20388;-61
2021/03/29 00:14:18;;;;;;;6.55;2.13;;;18.20;99.90;;;;;;5032355;28;20021;-61
2021/03/29 00:16:44;;;;;;;6.75;2.10;;;18.20;99.90;;;;;;5032203;28;20030;-62
2021/03/29 00:19:10;;;;;;;5.80;2.00;;;18.20;99.90;;;;;;5032282;28;20024;-62
2021/03/29 00:21:37;;;;;;;9.07;2.67;;;18.20;99.90;;;;;;5031783;28;20032;-60
2021/03/29 00:24:04;;;;;;;4.93;1.92;;;18.10;99.90;;;;;;5030943;28;20033;-66
2021/03/29 00:26:30;;;;;;;7.10;1.98;;;18.10;99.90;;;;;;5032228;28;20484;-67
2021/03/29 00:28:56;;;;;;;6.22;2.42;;;18.10;99.90;;;;;;5042199;28;20083;-66
2021/03/29 00:31:22;;;;;;;4.93;1.90;;;18.10;99.90;;;;;;5052327;28;20021;-62
2021/03/29 00:33:49;;;;;;;4.72;1.80;;;18.00;99.90;;;;;;5051927;28;20021;-62
2021/03/29 00:36:15;;;;;;;5.85;2.03;;;18.10;99.90;;;;;;5038893;28;20104;-61
2021/03/29 00:38:43;;;;;;;5.25;1.92;;;18.00;99.90;;;;;;5039544;28;20028;-62
2021/03/29 00:41:10;;;;;;;5.22;2.25;;;18.00;99.90;;;;;;5048670;28;20033;-61
2021/03/29 00:43:41;;;;;;;6.45;2.08;;;18.00;99.90;;;;;;5051504;28;20068;-61
2021/03/29 00:46:08;;;;;;;4.00;2.00;;;17.90;99.90;;;;;;5051832;28;20503;-61
2021/03/29 00:48:34;;;;;;;4.68;2.03;;;17.90;99.90;;;;;;5051861;28;20089;-61
2021/03/29 00:51:17;;;;;;;5.72;1.95;;;17.90;99.90;;;;;;5051534;28;20409;-61
2021/03/29 00:53:49;;;;;;;4.55;1.90;;;17.90;99.90;;;;;;5051990;28;20025;-63
2021/03/29 00:56:15;;;;;;;3.85;1.83;;;17.90;99.90;;;;;;5051705;28;20548;-61
2021/03/29 00:58:44;;;;;;;4.32;1.95;;;17.80;99.90;;;;;;5051627;28;20033;-61
2021/03/29 01:01:13;;;;;;;4.65;1.90;;;17.90;99.90;;;;;;5051642;28;20029;-63
2021/03/29 01:03:52;;;;;;;7.28;2.40;;;17.80;99.90;;;;;;5051624;28;20492;-61
2021/03/29 01:06:20;;;;;;;5.75;1.70;;;17.80;99.90;;;;;;5038290;28;20489;-67
2021/03/29 01:08:49;;;;;;;5.35;1.73;;;17.80;99.90;;;;;;5031713;28;20029;-61
2021/03/29 01:11:22;;;;;;;6.07;1.70;;;17.80;99.90;;;;;;5031797;28;20036;-61
2021/03/29 01:13:58;;;;;;;7.00;2.00;;;17.80;99.90;;;;;;5037400;28;20021;-60
2021/03/29 01:16:27;;;;;;;4.53;1.75;;;17.80;99.90;;;;;;5051891;28;20029;-60
2021/03/29 01:18:58;;;;;;;5.40;1.77;;;17.80;99.90;;;;;;5042871;28;20079;-61
2021/03/29 01:21:54;;;;;;;6.97;2.03;;;17.80;99.90;;;;;;5031936;28;20027;-60
2021/03/29 01:24:25;;;;;;;4.00;1.80;;;17.70;99.90;;;;;;5027027;28;20040;-60
2021/03/29 01:26:51;;;;;;;5.70;2.08;;;17.70;99.90;;;;;;5031599;28;20017;-67
2021/03/29 01:29:18;;;;;;;8.30;2.22;;;17.70;99.90;;;;;;5031540;28;20021;-67
2021/03/29 01:31:45;;;;;;;4.93;1.65;;;17.70;99.90;;;;;;5045407;28;20036;-67
2021/03/29 01:34:13;;;;;;;4.55;2.00;;;17.70;99.90;;;;;;5051998;28;20040;-67
2021/03/29 01:36:41;;;;;;;5.97;1.90;;;17.70;99.90;;;;;;5036591;28;20086;-66
2021/03/29 01:39:08;;;;;;;3.97;1.60;;;17.60;99.90;;;;;;5035241;28;20121;-68
2021/03/29 01:41:35;;;;;;;5.45;1.95;;;17.60;99.90;;;;;;5035190;28;20028;-66
2021/03/29 01:44:01;;;;;;;6.05;2.00;;;17.60;99.90;;;;;;5035159;28;20033;-68
2021/03/29 01:46:27;;;;;;;5.00;1.95;;;17.60;99.90;;;;;;5035515;28;20113;-68
2021/03/29 01:48:54;;;;;;;5.72;1.98;;;17.60;99.90;;;;;;5035140;28;20033;-68
2021/03/29 01:51:20;;;;;;;6.00;1.73;;;17.60;99.90;;;;;;5034928;28;20041;-64
2021/03/29 01:53:46;;;;;;;7.20;1.70;;;17.60;99.90;;;;;;5035047;28;20032;-66
2021/03/29 01:56:13;;;;;;;5.18;1.60;;;17.60;99.90;;;;;;5034941;28;20079;-67
2021/03/29 01:58:39;;;;;;;4.07;1.60;;;17.60;99.90;;;;;;5051268;28;20059;-66
2021/03/29 02:01:08;;;;;;;4.57;1.95;;;17.50;99.90;;;;;;5045081;28;20040;-67
2021/03/29 02:03:35;;;;;;;5.65;2.00;;;17.50;99.90;;;;;;5034711;28;20511;-65
2021/03/29 02:06:02;;;;;;;4.32;1.48;;;17.50;99.90;;;;;;5035190;28;20033;-60
2021/03/29 02:08:29;;;;;;;4.95;1.83;;;17.50;99.90;;;;;;5035034;28;20048;-63
2021/03/29 02:10:56;;;;;;;4.78;1.65;;;17.50;99.90;;;;;;5034709;28;20060;-65
2021/03/29 02:13:30;;;;;;;5.15;1.60;;;17.50;99.90;;;;;;5034606;28;20032;-67
2021/03/29 02:15:59;;;;;;;4.50;1.67;;;17.50;99.90;;;;;;5034834;28;20036;-66
2021/03/29 02:18:29;;;;;;;4.13;1.63;;;17.50;99.90;;;;;;5034561;28;20025;-64
2021/03/29 02:21:00;;;;;;;3.92;1.50;;;17.40;99.90;;;;;;5034502;28;20033;-65
2021/03/29 02:23:27;;;;;;;3.97;1.40;;;17.50;99.90;;;;;;5034491;28;20385;-66
2021/03/29 02:25:53;;;;;;;5.90;1.80;;;17.40;99.90;;;;;;5034427;28;20031;-65
2021/03/29 02:28:20;;;;;;;4.75;1.65;;;17.40;99.90;;;;;;5035368;28;20037;-63
2021/03/29 02:30:46;;;;;;;6.00;2.00;;;17.40;99.90;;;;;;5034509;28;20021;-63
2021/03/29 02:33:15;;;;;;;5.78;1.85;;;17.40;99.90;;;;;;5034404;28;20053;-63
2021/03/29 02:35:41;;;;;;;4.25;1.77;;;17.40;99.90;;;;;;5043203;28;20425;-67
2021/03/29 02:38:15;;;;;;;3.92;1.60;;;17.40;99.90;;;;;;5034278;28;20021;-64
2021/03/29 02:40:42;;;;;;;4.05;1.40;;;17.40;99.90;;;;;;5034204;28;20105;-66
2021/03/29 02:43:09;;;;;;;4.03;1.70;;;17.30;99.90;;;;;;5034048;28;20580;-66
2021/03/29 02:45:40;;;;;;;3.97;1.40;;;17.30;99.90;;;;;;5033698;28;20028;-65
2021/03/29 02:48:13;;;;;;;5.53;1.50;;;17.30;99.90;;;;;;5033996;28;20032;-63
2021/03/29 02:50:42;;;;;;;3.72;1.45;;;17.30;99.90;;;;;;5033967;28;20079;-65
2021/03/29 02:53:12;;;;;;;4.90;1.80;;;17.30;99.90;;;;;;5033983;28;20029;-63
2021/03/29 02:55:38;;;;;;;3.15;1.40;;;17.30;99.90;;;;;;5033768;28;20481;-63
2021/03/29 02:58:05;;;;;;;5.22;1.45;;;17.30;99.90;;;;;;5035934;28;20022;-61
2021/03/29 03:00:33;;;;;;;5.45;1.55;;;17.30;99.90;;;;;;5034099;28;20084;-62
2021/03/29 03:03:00;;;;;;;4.68;1.60;;;17.30;99.90;;;;;;5034044;28;20033;-63
2021/03/29 03:05:29;;;;;;;3.60;1.33;;;17.30;99.90;;;;;;5033720;28;20022;-64
2021/03/29 03:07:55;;;;;;;4.45;1.25;;;17.20;99.90;;;;;;5035123;28;20032;-65
2021/03/29 03:10:21;;;;;;;3.83;1.50;;;17.20;99.90;;;;;;5044219;28;20053;-62
2021/03/29 03:12:48;;;;;;;3.90;1.55;;;17.20;99.90;;;;;;5049033;28;20057;-67
2021/03/29 03:15:18;;;;;;;17.25;1.70;;;17.20;99.90;;;;;;5053443;28;20544;-68
2021/03/29 03:17:45;;;;;;;10.65;1.77;;;17.20;99.90;;;;;;5053453;28;20032;-66
2021/03/29 03:20:13;;;;;;;6.05;1.33;;;17.20;99.90;;;;;;5053315;28;20021;-65
2021/03/29 03:22:53;;;;;;;4.13;1.60;;;17.20;99.90;;;;;;5053284;28;20041;-67
2021/03/29 03:25:25;;;;;;;6.28;1.58;;;17.20;99.90;;;;;;5053162;28;20394;-67
2021/03/29 03:27:51;;;;;;;4.05;1.40;;;17.20;99.90;;;;;;5050782;28;20489;-67
2021/03/29 03:30:23;;;;;;;4.00;1.38;;;17.20;99.90;;;;;;5033355;28;20487;-67
2021/03/29 03:32:50;;;;;;;3.22;1.30;;;17.10;99.90;;;;;;5033270;28;20025;-65
2021/03/29 03:35:17;;;;;;;3.47;1.52;;;17.10;99.90;;;;;;5033278;28;20026;-66
2021/03/29 03:37:58;;;;;;;2.78;1.40;;;17.10;99.90;;;;;;5033113;28;20473;-65
2021/03/29 03:40:25;;;;;;;5.00;1.80;;;17.10;99.90;;;;;;5033063;28;20489;-65
2021/03/29 03:42:53;;;;;;;4.25;1.65;;;17.10;99.90;;;;;;5032732;28;20367;-63
2021/03/29 03:45:26;;;;;;;4.95;1.58;;;17.10;99.90;;;;;;5032843;28;20393;-64
2021/03/29 03:47:53;;;;;;;4.85;1.50;;;17.10;99.90;;;;;;5033063;28;20045;-64
2021/03/29 03:50:20;;;;;;;5.90;1.65;;;17.10;99.90;;;;;;5045895;28;20112;-67
2021/03/29 03:52:48;;;;;;;4.70;1.60;;;17.10;99.90;;;;;;5052632;28;20033;-69
2021/03/29 03:55:15;;;;;;;3.47;1.52;;;17.00;99.90;;;;;;5052912;28;20404;-68
2021/03/29 03:57:41;;;;;;;4.90;1.73;;;17.00;99.90;;;;;;5047140;28;20086;-65
2021/03/29 04:00:11;;;;;;;4.65;1.70;;;17.00;99.90;;;;;;5032792;28;20029;-66
2021/03/29 04:02:36;;;;;;;4.22;1.40;;;17.00;99.90;;;;;;5037065;28;20431;-64
2021/03/29 04:05:06;;;;;;;3.83;1.65;;;17.00;99.90;;;;;;5052751;28;20155;-65
2021/03/29 04:07:32;;;;;;;4.25;1.67;;;17.00;99.90;;;;;;5052755;28;20021;-64
2021/03/29 04:10:09;;;;;;;2.70;1.20;;;17.00;99.90;;;;;;5052462;28;20071;-68
2021/03/29 04:12:35;;;;;;;6.95;1.75;;;17.00;99.90;;;;;;5052626;28;20051;-68
2021/03/29 04:15:00;;;;;;;4.53;1.48;;;16.90;99.90;;;;;;5052319;28;20469;-65
2021/03/29 04:17:26;;;;;;;3.97;1.63;;;16.90;99.90;;;;;;5052175;28;20586;-64
2021/03/29 04:19:51;;;;;;;3.25;1.40;;;16.90;99.90;;;;;;5042661;28;20095;-68
2021/03/29 04:22:17;;;;;;;5.32;1.50;;;16.90;99.90;;;;;;5036264;28;20047;-67
2021/03/29 04:24:43;;;;;;;4.38;1.60;;;16.90;99.90;;;;;;5052106;28;20029;-64
2021/03/29 04:27:08;;;;;;;4.88;1.95;;;16.90;99.90;;;;;;5052329;28;20040;-62
2021/03/29 04:29:34;;;;;;;5.57;1.75;;;16.90;99.90;;;;;;5051617;28;20021;-67
2021/03/29 04:31:59;;;;;;;5.05;1.80;;;16.90;99.90;;;;;;5051110;28;20464;-65
2021/03/29 04:34:25;;;;;;;7.50;1.58;;;16.90;99.90;;;;;;5051662;28;20056;-66
2021/03/29 04:36:51;;;;;;;6.25;1.50;;;16.90;99.90;;;;;;5051966;28;20075;-63
2021/03/29 04:39:16;;;;;;;4.50;1.40;;;16.90;99.90;;;;;;5041005;28;20070;-63
2021/03/29 04:41:42;;;;;;;5.18;1.60;;;16.90;99.90;;;;;;5031948;28;20546;-63
2021/03/29 04:44:08;;;;;;;3.72;1.50;;;16.90;99.90;;;;;;5032324;28;20055;-64
2021/03/29 04:46:34;;;;;;;4.00;1.65;;;16.90;99.90;;;;;;5031933;28;20021;-62
2021/03/29 04:49:00;;;;;;;2.67;1.30;;;16.90;99.90;;;;;;5032023;28;20393;-61
2021/03/29 04:51:26;;;;;;;3.33;1.30;;;16.80;99.90;;;;;;5031723;28;20038;-63
2021/03/29 04:53:51;;;;;;;6.07;1.80;;;16.90;99.90;;;;;;5031983;28;20033;-63
2021/03/29 04:56:17;;;;;;;4.10;1.60;;;16.80;99.90;;;;;;5031845;28;20021;-63
2021/03/29 04:58:43;;;;;;;4.85;1.42;;;16.80;99.90;;;;;;5030531;28;20025;-66
2021/03/29 05:01:08;;;;;;;4.85;1.63;;;16.80;99.90;;;;;;5036706;28;20044;-62
2021/03/29 05:03:34;;;;;;;3.15;1.10;;;16.80;99.90;;;;;;5042950;28;20068;-63
2021/03/29 05:06:00;;;;;;;5.03;1.60;;;16.80;99.90;;;;;;5052046;28;20394;-68
2021/03/29 05:08:25;;;;;;;4.38;1.60;;;16.80;99.90;;;;;;5053347;28;20393;-67
2021/03/29 05:10:51;;;;;;;3.63;1.30;;;16.80;99.90;;;;;;5055910;28;20071;-66
2021/03/29 05:13:16;;;;;;;5.25;1.33;;;16.80;99.90;;;;;;5055857;28;20025;-67
2021/03/29 05:15:42;;;;;;;5.43;1.40;;;16.80;99.90;;;;;;5055882;28;20504;-67
2021/03/29 05:18:08;;;;;;;3.53;1.30;;;16.80;99.90;;;;;;5056258;28;20083;-66
2021/03/29 05:20:33;;;;;;;4.65;1.50;;;16.80;99.90;;;;;;5039167;28;20481;-67
2021/03/29 05:22:59;;;;;;;4.55;1.40;;;16.70;99.90;;;;;;5035619;28;20079;-63
2021/03/29 05:25:25;;;;;;;3.55;1.60;;;16.70;99.90;;;;;;5035667;28;20021;-66
2021/03/29 05:27:51;;;;;;;6.53;1.80;;;16.70;99.90;;;;;;5042473;28;20100;-66
2021/03/29 05:30:17;;;;;;;4.25;1.30;;;16.70;99.90;;;;;;5054765;28;20055;-66
2021/03/29 05:32:42;;;;;;;3.13;1.45;;;16.70;99.90;;;;;;5055602;28;20051;-64
2021/03/29 05:35:08;;;;;;;2.65;1.30;;;16.70;99.90;;;;;;5055799;28;20112;-68
2021/03/29 05:37:34;;;;;;;2.95;1.42;;;16.60;99.90;;;;;;5055464;28;20508;-65
2021/03/29 05:40:00;;;;;;;3.20;1.40;;;16.70;99.90;;;;;;5055321;28;20388;-67
2021/03/29 05:42:29;;;;;;;2.55;1.23;;;16.60;99.90;;;;;;5055248;28;20102;-68
2021/03/29 05:45:07;;;;;;;3.60;1.50;;;16.60;99.90;;;;;;5054936;28;20485;-62
2021/03/29 05:47:33;;;;;;;4.47;1.17;;;16.60;99.90;;;;;;5035509;28;20101;-68
2021/03/29 05:50:00;;;;;;;3.67;1.58;;;16.60;99.90;;;;;;5049362;28;20498;-64
2021/03/29 05:52:28;;;;;;;5.63;1.60;;;16.50;99.90;;;;;;5052211;28;20060;-68
2021/03/29 05:54:55;;;;;;;5.68;1.67;;;16.60;99.90;;;;;;5046700;28;20103;-61
2021/03/29 05:57:21;;;;;;;8.18;1.60;;;16.60;99.90;;;;;;5044833;28;20013;-66
2021/03/29 05:59:47;;;;;;;6.10;2.40;;;16.50;99.90;;;;;;5044217;28;20024;-67
2021/03/29 06:02:31;;;;;;;6.65;2.40;;;16.30;99.90;;;;;;5053909;28;20554;-61
2021/03/29 06:04:57;;;;;;;12.18;2.83;;;15.90;99.90;;;;;;5054913;28;20029;-67
2021/03/29 06:07:25;;;;;;;7.43;2.90;;;15.80;99.60;;;;;;5050322;28;20075;-65
2021/03/29 06:09:53;;;;;;;6.80;2.78;;;15.60;99.10;;;;;;5034817;28;20032;-66
2021/03/29 06:12:21;;;;;;;6.85;2.65;;;15.60;98.90;;;;;;5035872;28;20131;-60
2021/03/29 06:14:57;;;;;;;7.88;2.47;;;15.60;98.80;;;;;;5040243;28;20112;-60
2021/03/29 06:17:23;;;;;;;7.97;2.63;;;15.60;98.60;;;;;;5040851;28;20469;-62
2021/03/29 06:19:59;;;;;;;7.13;2.38;;;15.60;99.10;;;;;;5033971;28;20036;-65
2021/03/29 06:22:32;;;;;;;10.90;2.33;;;15.70;99.20;;;;;;5041986;28;20396;-65
2021/03/29 06:25:19;;;;;;;13.50;2.72;;;15.80;99.90;;;;;;5049753;28;20059;-59
2021/03/29 06:27:47;;;;;;;8.02;2.80;;;15.90;99.90;;;;;;5046615;28;20063;-63
2021/03/29 06:30:16;;;;;;;8.55;2.45;;;16.00;99.90;;;;;;5047222;28;20027;-65
2021/03/29 06:32:57;;;;;;;8.52;2.60;;;15.90;99.50;;;;;;5047955;28;20435;-61
2021/03/29 06:35:31;;;;;;;8.43;2.70;;;15.80;98.80;;;;;;5034439;28;20029;-64
2021/03/29 06:38:12;;;;;;;9.98;3.05;;;15.80;98.70;;;;;;5034383;28;20478;-63
2021/03/29 06:40:41;;;;;;;5.53;2.33;;;15.80;98.60;;;;;;5034661;28;20381;-61
2021/03/29 06:43:32;;;;;;;7.30;2.40;;;15.80;98.50;;;;;;5035169;28;20465;-58
2021/03/29 06:46:06;;;;;;;7.63;2.53;;;15.80;98.40;;;;;;5044966;28;20486;-65
2021/03/29 06:48:34;;;;;;;13.00;3.13;;;15.80;98.30;;;;;;5037843;28;20037;-66
2021/03/29 06:51:22;;;;;;;6.57;2.75;;;15.80;98.40;;;;;;5053312;28;20033;-60
2021/03/29 06:54:08;;;;;;;8.40;3.13;;;15.80;98.50;;;;;;5034085;28;20029;-60
2021/03/29 06:56:39;;;;;;;6.90;2.85;;;15.90;98.40;;;;;;5034144;28;20485;-64
2021/03/29 06:59:04;;;;;;;8.20;2.45;;;15.90;98.50;;;;;;5036306;28;20037;-69
2021/03/29 07:01:32;;;;;;;6.53;2.40;;;16.20;98.60;;;;;;5041649;28;20530;-68
2021/03/29 07:03:58;;;;;;;6.50;2.20;;;16.50;99.70;;;;;;5053716;28;20060;-67
2021/03/29 07:06:26;;;;;;;7.93;2.17;;;16.70;99.60;;;;;;5053730;28;20469;-69
2021/03/29 07:09:01;;;;;;;5.30;1.90;;;16.80;98.70;;;;;;5053681;28;20021;-68
2021/03/29 07:11:26;;;;;;;6.40;1.98;;;16.90;98.20;;;;;;5053775;28;20029;-66
2021/03/29 07:13:53;;;;;;;6.95;2.00;;;17.10;97.90;;;;;;5038508;28;20032;-68
2021/03/29 07:16:21;;;;;;;5.00;1.80;;;17.40;98.20;;;;;;5033080;28;20404;-67
2021/03/29 07:18:48;;;;;;;7.63;2.17;;;17.50;99.60;;;;;;5033751;28;20136;-65
2021/03/29 07:21:16;;;;;;;6.28;1.85;;;17.50;98.90;;;;;;5058096;28;20488;-66
2021/03/29 07:23:42;;;;;;;8.13;2.03;;;17.50;99.40;;;;;;5053451;28;20036;-66
2021/03/29 07:26:43;;;;;;;6.85;2.20;;;17.60;99.00;;;;;;5053496;28;20096;-67
2021/03/29 07:29:22;;;;;;;4.30;2.03;;;17.60;98.60;;;;;;5051567;28;20036;-66
2021/03/29 07:31:53;;;;;;;7.28;3.13;;;17.60;98.20;;;;;;5050770;28;20048;-64
2021/03/29 07:34:41;;;;;;;7.90;3.60;;;17.60;98.20;;;;;;5052903;28;20029;-63
2021/03/29 07:37:35;;;;;;;8.40;3.47;;;17.40;98.80;;;;;;5053102;28;20028;-64
2021/03/29 07:40:22;;;;;;;8.88;3.60;;;17.20;99.40;;;;;;5053037;28;20487;-65
2021/03/29 07:42:49;;;;;;;6.97;3.45;;;17.20;99.30;;;;;;5040206;28;20044;-69
2021/03/29 07:45:17;;;;;;;6.10;3.38;;;17.10;99.30;;;;;;5035582;28;20041;-62
2021/03/29 07:47:52;;;;;;;7.93;3.03;;;17.20;99.60;;;;;;5032811;28;20041;-62
2021/03/29 07:50:27;;;;;;;7.10;3.33;;;17.20;99.90;;;;;;5033299;28;20021;-63
2021/03/29 07:53:03;;;;;;;5.82;2.97;;;17.20;99.90;;;;;;5032620;28;20540;-69
2021/03/29 07:55:36;;;;;;;8.68;3.55;;;17.20;99.90;;;;;;5047472;28;20040;-63
2021/03/29 07:58:07;;;;;;;6.25;2.92;;;17.30;99.90;;;;;;5032794;28;20025;-68
2021/03/29 08:00:33;;;;;;;8.80;3.30;;;17.30;99.90;;;;;;5032771;28;20025;-65
2021/03/29 08:03:21;;;;;;;8.18;3.20;;;17.30;99.90;;;;;;5032659;28;20045;-68
2021/03/29 08:05:52;;;;;;;7.03;3.17;;;17.30;99.90;;;;;;5033463;28;20109;-66
2021/03/29 08:08:33;;;;;;;6.22;3.40;;;17.30;99.90;;;;;;5032922;28;20029;-63
2021/03/29 08:10:59;;;;;;;6.80;3.10;;;17.30;99.90;;;;;;5032487;28;20025;-63
2021/03/29 08:13:39;;;;;;;6.28;3.28;;;17.30;99.90;;;;;;5050372;28;20033;-64
2021/03/29 08:16:15;;;;;;;5.75;2.88;;;17.40;99.90;;;;;;5051302;28;20027;-65
2021/03/29 08:19:24;;;;;;;6.95;3.17;;;17.40;99.90;;;;;;5052550;28;20025;-65
2021/03/29 08:22:01;;;;;;;5.45;2.65;;;17.40;99.90;;;;;;5033493;28;20099;-63
2021/03/29 08:24:46;;;;;;;5.75;2.88;;;17.40;99.90;;;;;;5032481;28;20037;-63
2021/03/29 08:27:15;;;;;;;6.82;3.08;;;17.50;99.90;;;;;;5032583;28;20033;-62
2021/03/29 08:29:42;;;;;;;6.68;2.72;;;17.50;99.90;;;;;;5032237;28;20025;-63
2021/03/29 08:32:31;;;;;;;6.25;2.88;;;17.50;99.90;;;;;;5032231;28;20101;-62
2021/03/29 08:35:00;;;;;;;5.82;2.67;;;17.50;99.90;;;;;;5032391;28;20421;-65
2021/03/29 08:37:38;;;;;;;6.65;2.80;;;17.60;99.90;;;;;;5032291;28;20021;-72
2021/03/29 08:40:14;;;;;;;5.68;2.70;;;17.60;99.90;;;;;;5032030;28;20083;-66
2021/03/29 08:42:43;;;;;;;7.00;2.85;;;17.60;99.90;;;;;;5033180;28;20511;-62
2021/03/29 08:45:11;;;;;;;5.38;2.33;;;17.60;99.90;;;;;;5032336;28;20037;-61
2021/03/29 08:47:42;;;;;;;5.47;2.63;;;17.70;99.90;;;;;;5032021;28;20489;-62
2021/03/29 08:50:13;;;;;;;5.53;2.50;;;17.70;99.90;;;;;;5031958;28;20032;-67
2021/03/29 08:53:02;;;;;;;5.15;2.33;;;17.80;99.90;;;;;;5031901;28;20079;-63
2021/03/29 08:55:34;;;;;;;4.80;2.35;;;17.80;99.90;;;;;;5026958;28;20460;-67
2021/03/29 08:58:00;;;;;;;4.35;2.50;;;17.90;99.90;;;;;;5031993;28;20028;-63
2021/03/29 09:00:32;;;;;;;5.70;2.22;;;17.90;99.90;;;;;;5031891;28;20025;-64
2021/03/29 09:02:57;;;;;;;5.45;2.35;;;17.90;99.90;;;;;;5031858;28;20033;-67
2021/03/29 09:05:25;;;;;;;5.78;2.30;;;18.00;99.90;;;;;;5032142;28;20033;-64
2021/03/29 09:07:52;;;;;;;4.95;2.17;;;18.00;99.90;;;;;;5032208;28;20030;-64
2021/03/29 09:10:22;;;;;;;5.55;2.60;;;18.10;99.90;;;;;;5032055;28;20017;-65
2021/03/29 09:13:00;;;;;;;4.25;2.03;;;18.10;99.90;;;;;;5032919;28;20032;-65
2021/03/29 09:15:36;;;;;;;6.15;2.20;;;18.10;99.90;;;;;;5043659;28;20053;-65
2021/03/29 09:18:08;;;;;;;4.78;2.17;;;18.20;99.90;;;;;;5048864;28;20029;-67
2021/03/29 09:20:39;;;;;;;3.97;2.00;;;18.30;99.90;;;;;;5050705;28;20062;-65
2021/03/29 09:23:07;;;;;;;5.47;2.10;;;18.30;99.90;;;;;;5041264;28;20037;-66
2021/03/29 09:25:37;;;;;;;4.53;2.15;;;18.30;99.90;;;;;;5041380;28;20104;-64
2021/03/29 09:28:40;;;;;;;3.38;1.73;;;18.40;99.90;;;;;;5045659;28;20438;-63
2021/03/29 09:31:19;;;;;;;5.40;2.05;;;18.40;99.90;;;;;;5051471;28;20484;-64
2021/03/29 09:33:45;;;;;;;4.35;2.03;;;18.50;99.90;;;;;;5042816;28;20022;-63
2021/03/29 09:36:14;;;;;;;4.35;1.98;;;18.50;99.90;;;;;;5043581;28;20082;-62
2021/03/29 09:38:43;;;;;;;4.32;2.08;;;18.60;99.90;;;;;;5032021;28;20030;-65
2021/03/29 09:41:20;;;;;;;5.00;2.17;;;18.60;99.90;;;;;;5042619;28;20381;-65
2021/03/29 09:43:51;;;;;;;6.03;2.25;;;18.70;99.90;;;;;;5034473;28;20133;-67
2021/03/29 09:46:17;;;;;;;4.20;1.75;;;18.80;99.90;;;;;;5031500;28;20053;-64
2021/03/29 09:48:43;;;;;;;4.10;2.00;;;18.80;99.90;;;;;;5045023;28;20104;-63
2021/03/29 09:51:20;;;;;;;5.75;1.98;;;18.90;99.80;;;;;;5047963;28;20120;-63
2021/03/29 09:53:46;;;;;;;3.30;1.83;;;19.00;99.80;;;;;;5041713;28;20389;-62
2021/03/29 09:56:12;;;;;;;4.78;2.03;;;19.00;99.80;;;;;;5050347;28;20107;-63
2021/03/29 09:58:45;;;;;;;4.03;2.08;;;19.00;99.60;;;;;;5046736;28;20101;-64
2021/03/29 10:01:23;;;;;;;4.65;2.13;;;19.10;99.70;;;;;;5046205;28;20094;-62
2021/03/29 10:03:57;;;;;;;4.70;2.00;;;19.10;99.70;;;;;;5039579;28;20041;-63
2021/03/29 10:06:24;;;;;;;5.68;1.83;;;19.00;98.10;;;;;;5035034;28;20036;-62
2021/03/29 10:09:02;;;;;;;4.22;2.13;;;19.00;97.00;;;;;;5036284;28;20032;-66
2021/03/29 10:11:43;;;;;;;3.92;1.83;;;18.90;97.10;;;;;;5056059;28;20025;-65
2021/03/29 10:14:09;;;;;;;3.55;1.70;;;18.90;96.80;;;;;;5047608;28;20099;-65
2021/03/29 10:16:43;;;;;;;3.88;1.90;;;18.90;96.80;;;;;;5045145;28;20021;-63
2021/03/29 10:19:13;;;;;;;4.95;1.90;;;18.90;96.70;;;;;;5048765;28;20033;-62
2021/03/29 10:21:58;;;;;;;4.00;1.95;;;18.90;96.70;;;;;;5039140;28;20440;-63
2021/03/29 10:24:24;;;;;;;5.15;1.65;;;18.90;96.60;;;;;;5053938;28;20481;-62
2021/03/29 10:26:55;;;;;;;4.45;1.83;;;19.00;96.70;;;;;;5053787;28;20104;-61
2021/03/29 10:29:38;;;;;;;3.42;1.98;;;19.00;96.50;;;;;;5053048;28;20032;-64
2021/03/29 10:32:05;;;;;;;4.80;1.77;;;19.00;96.30;;;;;;5041059;28;20051;-66
2021/03/29 10:34:33;;;;;;;3.25;1.58;;;19.10;96.50;;;;;;5053456;28;20033;-65
2021/03/29 10:36:58;;;;;;;4.65;1.73;;;19.10;96.50;;;;;;5053664;28;20563;-67
2021/03/29 10:39:24;;;;;;;5.05;1.90;;;19.10;96.70;;;;;;5055660;28;20028;-66
2021/03/29 10:41:50;;;;;;;5.10;1.83;;;19.20;96.40;;;;;;5073480;28;20013;-65
2021/03/29 10:44:15;;;;;;;4.80;2.05;;;19.20;96.40;;;;;;5062508;28;20495;-65
2021/03/29 10:46:42;;;;;;;3.50;1.58;;;19.20;96.50;;;;;;5052460;28;20056;-69
2021/03/29 10:49:09;;;;;;;10.48;3.60;;;19.30;96.50;;;;;;5047254;28;20033;-63
2021/03/29 10:51:36;;;;;;;4.93;1.90;;;19.30;96.20;;;;;;5052262;28;20029;-65
2021/03/29 10:54:02;;;;;;;6.22;1.80;;;19.40;96.10;;;;;;5053337;28;20017;-66
2021/03/29 10:56:28;;;;;;;3.40;1.70;;;19.40;96.10;;;;;;5053050;28;20078;-64
2021/03/29 10:58:54;;;;;;;3.40;1.73;;;19.50;96.10;;;;;;5050915;28;20025;-65
2021/03/29 11:01:19;;;;;;;3.38;1.77;;;19.60;96.20;;;;;;5048610;28;20044;-74
2021/03/29 11:03:45;;;;;;;6.70;1.50;;;19.70;96.40;;;;;;5053042;28;20480;-63
2021/03/29 11:06:10;;;;;;;3.95;1.60;;;19.80;95.80;;;;;;5052751;28;20029;-68
2021/03/29 11:08:36;;;;;;;4.53;1.92;;;19.80;95.70;;;;;;5052582;28;20025;-70
2021/03/29 11:11:02;;;;;;;6.15;1.90;;;19.80;95.60;;;;;;5068767;28;20047;-68
2021/03/29 11:13:27;;;;;;;3.65;1.45;;;19.90;95.80;;;;;;5073114;28;20103;-64
2021/03/29 11:15:55;;;;;;;4.75;1.60;;;20.00;95.50;;;;;;5072864;28;20070;-66
2021/03/29 11:18:20;;;;;;;4.05;1.70;;;20.00;95.60;;;;;;5035606;28;20030;-63
2021/03/29 11:20:46;;;;;;;3.97;1.60;;;20.10;95.70;;;;;;5046472;28;20384;-64
2021/03/29 11:23:12;;;;;;;5.70;2.17;;;20.10;95.80;;;;;;5052546;28;20380;-65
2021/03/29 11:25:37;;;;;;;7.90;1.65;;;20.20;95.20;;;;;;5056618;28;20016;-65
2021/03/29 11:28:04;;;;;;;3.90;1.67;;;20.20;95.10;;;;;;5057317;28;20060;-67
2021/03/29 11:30:30;;;;;;;6.03;1.80;;;20.20;95.10;;;;;;5052271;28;20036;-66
2021/03/29 11:32:56;;;;;;;7.03;1.70;;;20.20;95.00;;;;;;5053306;28;20025;-66
2021/03/29 11:35:22;;;;;;;4.55;1.60;;;20.20;95.10;;;;;;5052351;28;20572;-67
2021/03/29 11:37:47;;;;;;;5.13;1.50;;;20.30;95.00;;;;;;5051204;28;20119;-70
2021/03/29 11:40:14;;;;;;;4.60;1.45;;;20.30;95.10;;;;;;5052225;28;20362;-68
2021/03/29 11:42:40;;;;;;;3.30;1.40;;;20.30;95.00;;;;;;5051774;28;20032;-66
2021/03/29 11:45:08;;;;;;;4.72;1.77;;;20.30;95.00;;;;;;5051937;28;20056;-64
2021/03/29 11:47:34;;;;;;;5.15;1.70;;;20.40;94.90;;;;;;5042866;28;20036;-64
2021/03/29 11:49:59;;;;;;;4.35;1.52;;;20.40;94.90;;;;;;5063082;28;20024;-64
2021/03/29 11:52:25;;;;;;;3.67;1.77;;;20.40;94.80;;;;;;5061122;28;20109;-65
2021/03/29 11:54:50;;;;;;;4.25;1.80;;;20.40;94.80;;;;;;5062597;28;20024;-67
2021/03/29 11:57:18;;;;;;;5.32;1.90;;;20.30;94.80;;;;;;5059616;28;20171;-68
2021/03/29 11:59:49;;;;;;;3.55;1.70;;;20.40;94.80;;;;;;5056023;28;20033;-69
2021/03/29 12:02:21;;;;;;;5.40;1.90;;;20.40;94.70;;;;;;5050446;28;20112;-67
2021/03/29 12:04:59;;;;;;;5.97;1.65;;;20.40;94.70;;;;;;5056919;28;20487;-67
2021/03/29 12:07:33;;;;;;;5.10;1.70;;;20.40;94.60;;;;;;5055588;28;20032;-70
2021/03/29 12:12:45;;;;;;;4.03;1.50;;;20.50;94.50;;;;;;5050283;28;20036;-69
2021/03/29 12:15:13;;;;;;;4.18;1.60;;;20.60;94.50;;;;;;5042906;28;20500;-72
2021/03/29 12:17:40;;;;;;;6.18;1.67;;;20.70;94.50;;;;;;5046928;28;20033;-67
2021/03/29 12:20:07;;;;;;;3.55;1.48;;;21.00;95.40;;;;;;5043707;28;20110;-65
2021/03/29 12:22:33;;;;;;;3.80;1.60;;;21.40;95.40;;;;;;5032149;28;20045;-68
2021/03/29 12:25:00;;;;;;;4.85;1.60;;;21.70;95.50;;;;;;5043359;28;20127;-69
2021/03/29 12:27:26;;;;;;;4.13;1.55;;;21.90;95.60;;;;;;5039153;28;20362;-69
2021/03/29 12:29:54;;;;;;;4.00;1.45;;;22.10;95.80;;;;;;5049495;28;20031;-67
2021/03/29 12:32:20;;;;;;;2.90;1.60;;;22.30;96.00;;;;;;5047382;28;20052;-65
2021/03/29 12:34:55;;;;;;;4.20;1.40;;;22.50;96.00;;;;;;5038251;28;20060;-67
2021/03/29 12:37:22;;;;;;;5.70;1.80;;;22.60;96.20;;;;;;5051677;28;20017;-63
2021/03/29 12:40:08;;;;;;;3.63;1.60;;;22.80;96.50;;;;;;5047951;28;20528;-66
2021/03/29 12:42:38;;;;;;;2.70;1.40;;;22.90;96.70;;;;;;5036201;28;20029;-65
2021/03/29 12:45:05;;;;;;;3.50;1.50;;;23.00;96.70;;;;;;5048113;28;20473;-63
2021/03/29 12:47:35;;;;;;;4.18;1.52;;;23.10;96.90;;;;;;5038605;28;20029;-65
2021/03/29 12:50:11;;;;;;;3.00;1.50;;;23.20;96.60;;;;;;5039116;28;20025;-64
2021/03/29 12:52:37;;;;;;;3.20;1.30;;;23.40;96.70;;;;;;5050104;28;21578;-66
2021/03/29 12:55:06;;;;;;;2.67;1.40;;;23.50;97.00;;;;;;5033335;28;20030;-64
2021/03/29 12:57:32;;;;;;;3.78;1.27;;;23.60;96.80;;;;;;5047804;28;20026;-68
2021/03/29 12:59:57;;;;;;;3.15;1.60;;;23.70;97.00;;;;;;5051880;28;20376;-70
2021/03/29 13:02:23;;;;;;;4.40;1.80;;;23.80;97.20;;;;;;5051725;28;20045;-63